Time;durP1;ratioP1;P1;durP2;ratioP2;P2;SDS_P1;SDS_P2;PMS_P1;PMS_P2;Temp;Humidity;BMP_temperature;BMP_pressure;BME280_temperature;BME280_humidity;BME280_pressure;Samples;Min_cycle;Max_cycle;Signal;HPM_P1;HPM_P2
2023/01/14 00:01:22;;;;;;;16.75;2.05;;;8.90;99.90;;;;;;5034569;28;20029;-76
2023/01/14 00:03:48;;;;;;;19.33;2.25;;;8.90;99.90;;;;;;5035818;28;20022;-76
2023/01/14 00:06:16;;;;;;;13.90;1.75;;;8.90;99.90;;;;;;5035839;28;20031;-75
2023/01/14 00:08:43;;;;;;;19.75;1.77;;;8.90;99.90;;;;;;5034572;28;20030;-75
2023/01/14 00:11:11;;;;;;;18.60;1.77;;;8.80;99.90;;;;;;5034884;28;20512;-75
2023/01/14 00:13:38;;;;;;;17.90;3.33;;;8.80;99.90;;;;;;5035685;28;20029;-75
2023/01/14 00:16:06;;;;;;;17.50;2.50;;;8.80;99.90;;;;;;5035409;28;20183;-76
2023/01/14 00:18:33;;;;;;;16.02;2.08;;;8.80;99.90;;;;;;5035808;28;20029;-75
2023/01/14 00:21:05;;;;;;;14.93;2.10;;;8.70;99.90;;;;;;5035137;28;20030;-75
2023/01/14 00:23:32;;;;;;;24.75;2.80;;;8.70;99.90;;;;;;5035449;28;20446;-75
2023/01/14 00:26:16;;;;;;;19.40;2.28;;;8.70;99.90;;;;;;5034888;28;20355;-76
2023/01/14 00:28:47;;;;;;;18.55;2.67;;;8.70;99.90;;;;;;5035166;28;20069;-75
2023/01/14 00:31:16;;;;;;;18.15;2.95;;;8.60;99.90;;;;;;5035657;28;20025;-74
2023/01/14 00:33:42;;;;;;;21.05;2.65;;;8.50;99.90;;;;;;5034292;28;20032;-74
2023/01/14 00:36:10;;;;;;;16.15;2.45;;;8.50;99.90;;;;;;5034205;28;20052;-75
2023/01/14 00:38:37;;;;;;;21.15;2.45;;;8.40;99.90;;;;;;5035043;28;20099;-75
2023/01/14 00:41:15;;;;;;;18.80;2.55;;;8.40;99.90;;;;;;5017455;28;20120;-74
2023/01/14 00:43:43;;;;;;;19.02;2.30;;;8.40;99.90;;;;;;5035094;28;20025;-75
2023/01/14 00:46:11;;;;;;;22.23;2.10;;;8.40;99.90;;;;;;5033833;28;20029;-75
2023/01/14 00:48:37;;;;;;;13.15;1.83;;;8.40;99.90;;;;;;5034992;28;20025;-75
2023/01/14 00:51:04;;;;;;;15.20;2.60;;;8.40;99.90;;;;;;5035223;28;20030;-75
2023/01/14 00:53:29;;;;;;;19.63;3.03;;;8.40;99.90;;;;;;5034960;28;20032;-75
2023/01/14 00:55:55;;;;;;;22.00;2.75;;;8.40;99.90;;;;;;5033442;28;20041;-75
2023/01/14 00:58:21;;;;;;;20.05;2.00;;;8.40;99.90;;;;;;5033463;28;20045;-75
2023/01/14 01:00:47;;;;;;;22.45;2.50;;;8.40;99.90;;;;;;5034763;28;20022;-75
2023/01/14 01:03:14;;;;;;;12.73;1.88;;;8.40;99.90;;;;;;5034770;28;20037;-75
2023/01/14 01:05:40;;;;;;;18.45;2.22;;;8.30;99.90;;;;;;5034641;28;20030;-75
2023/01/14 01:08:11;;;;;;;15.77;2.50;;;8.40;99.90;;;;;;5034604;28;20029;-75
2023/01/14 01:10:36;;;;;;;20.02;2.38;;;8.40;99.90;;;;;;5034355;28;20029;-74
2023/01/14 01:13:03;;;;;;;19.75;2.55;;;8.30;99.90;;;;;;5034873;28;20102;-75
2023/01/14 01:15:35;;;;;;;19.85;2.33;;;8.30;99.90;;;;;;5034456;28;20033;-75
2023/01/14 01:18:02;;;;;;;19.83;3.03;;;8.30;99.90;;;;;;5034009;28;20421;-75
2023/01/14 01:20:28;;;;;;;19.58;2.83;;;8.30;99.90;;;;;;5034132;28;20030;-75
2023/01/14 01:22:54;;;;;;;21.98;3.42;;;8.30;99.90;;;;;;5034300;28;20079;-75
2023/01/14 01:25:20;;;;;;;20.92;2.95;;;8.30;99.90;;;;;;5016676;28;20128;-75
2023/01/14 01:27:46;;;;;;;17.42;2.83;;;8.30;99.90;;;;;;5034206;28;20030;-75
2023/01/14 01:30:12;;;;;;;18.05;2.45;;;8.30;99.90;;;;;;5033075;28;20032;-75
2023/01/14 01:32:38;;;;;;;22.50;3.20;;;8.30;99.90;;;;;;5033553;28;20365;-75
2023/01/14 01:35:04;;;;;;;16.67;2.42;;;8.20;99.90;;;;;;5032775;28;20037;-75
2023/01/14 01:37:30;;;;;;;26.38;2.90;;;8.20;99.90;;;;;;5032536;28;20026;-74
2023/01/14 01:39:56;;;;;;;22.33;2.63;;;8.20;99.90;;;;;;5032662;28;20037;-75
2023/01/14 01:42:23;;;;;;;22.33;2.88;;;8.20;99.90;;;;;;5032982;28;20080;-75
2023/01/14 01:44:49;;;;;;;19.55;2.70;;;8.30;99.90;;;;;;5034505;28;20029;-74
2023/01/14 01:47:19;;;;;;;17.85;2.35;;;8.20;99.90;;;;;;5032203;28;20378;-75
2023/01/14 01:49:46;;;;;;;19.92;2.28;;;8.20;99.90;;;;;;5033877;28;20025;-75
2023/01/14 01:52:16;;;;;;;22.15;2.58;;;8.20;99.90;;;;;;5032435;28;20455;-74
2023/01/14 01:54:51;;;;;;;21.40;2.50;;;8.20;99.90;;;;;;5033912;28;20075;-74
2023/01/14 01:57:17;;;;;;;21.08;2.55;;;8.20;99.90;;;;;;5032771;28;20508;-74
2023/01/14 01:59:49;;;;;;;16.95;2.65;;;8.20;99.90;;;;;;5016619;28;20025;-75
2023/01/14 02:02:16;;;;;;;19.52;2.60;;;8.20;99.90;;;;;;5033555;28;20026;-75
2023/01/14 02:04:42;;;;;;;25.67;2.90;;;8.10;99.90;;;;;;5032957;28;20175;-74
2023/01/14 02:07:16;;;;;;;18.02;2.85;;;8.10;99.90;;;;;;5034040;28;20116;-75
2023/01/14 02:09:42;;;;;;;22.27;2.67;;;8.10;99.90;;;;;;5032456;28;20025;-75
2023/01/14 02:12:22;;;;;;;18.35;2.40;;;8.10;99.90;;;;;;5032317;28;20033;-75
2023/01/14 02:15:00;;;;;;;23.40;3.15;;;8.10;99.90;;;;;;5033280;28;20098;-75
2023/01/14 02:17:50;;;;;;;26.45;3.28;;;8.10;99.90;;;;;;5033948;28;20025;-75
2023/01/14 02:20:26;;;;;;;27.95;2.85;;;8.10;99.90;;;;;;5033906;28;20103;-75
2023/01/14 02:23:29;;;;;;;14.02;2.13;;;8.10;99.90;;;;;;5033229;28;20033;-75
2023/01/14 02:26:17;;;;;;;19.75;2.97;;;8.00;99.90;;;;;;5032552;28;20374;-76
2023/01/14 02:29:09;;;;;;;21.75;2.72;;;8.10;99.90;;;;;;5033256;28;20025;-75
2023/01/14 02:31:51;;;;;;;22.08;2.55;;;8.00;99.90;;;;;;5032721;28;20408;-76
2023/01/14 02:34:55;;;;;;;18.63;2.22;;;8.00;99.90;;;;;;5033225;28;20540;-76
2023/01/14 02:37:27;;;;;;;21.23;2.90;;;8.00;99.90;;;;;;5033048;28;20083;-75
2023/01/14 02:39:56;;;;;;;20.83;3.05;;;7.90;99.90;;;;;;5032267;28;20050;-76
2023/01/14 02:45:20;;;;;;;22.00;2.53;;;7.90;99.90;;;;;;5033793;28;20092;-75
2023/01/14 02:47:48;;;;;;;24.00;3.72;;;7.90;99.90;;;;;;5032444;28;20466;-75
2023/01/14 02:50:15;;;;;;;22.75;3.03;;;7.80;99.90;;;;;;5033050;28;20033;-75
2023/01/14 02:52:41;;;;;;;27.08;4.03;;;7.80;99.90;;;;;;5032515;28;20033;-75
2023/01/14 02:55:27;;;;;;;25.52;3.30;;;7.80;99.90;;;;;;5031831;28;20509;-75
2023/01/14 02:58:17;;;;;;;30.00;3.50;;;7.80;99.90;;;;;;5031645;28;20034;-75
2023/01/14 03:01:15;;;;;;;25.42;4.35;;;7.80;99.90;;;;;;5037287;28;20032;-75
2023/01/14 03:04:02;;;;;;;23.75;3.80;;;7.70;99.90;;;;;;5035721;28;20130;-75
2023/01/14 03:06:40;;;;;;;26.73;3.30;;;7.70;99.90;;;;;;5036023;28;20029;-75
2023/01/14 03:09:43;;;;;;;33.42;4.25;;;7.70;99.90;;;;;;5035496;28;20026;-75
2023/01/14 03:12:32;;;;;;;30.80;3.70;;;7.60;99.90;;;;;;5036191;28;20029;-75
2023/01/14 03:15:33;;;;;;;23.77;3.17;;;7.60;99.90;;;;;;5036867;28;20052;-75
2023/01/14 03:18:35;;;;;;;32.85;4.65;;;7.70;99.90;;;;;;5036335;28;20100;-75
2023/01/14 03:21:27;;;;;;;29.88;4.18;;;7.60;99.90;;;;;;5036640;28;20033;-75
2023/01/14 03:24:04;;;;;;;33.67;3.78;;;7.60;99.90;;;;;;5033699;28;20124;-75
2023/01/14 03:26:33;;;;;;;31.30;4.53;;;7.60;99.90;;;;;;5036401;28;20037;-74
2023/01/14 03:29:03;;;;;;;28.80;4.30;;;7.60;99.90;;;;;;5018840;28;20034;-75
2023/01/14 03:31:34;;;;;;;33.33;3.65;;;7.60;99.90;;;;;;5037036;28;20543;-74
2023/01/14 03:34:09;;;;;;;27.40;3.50;;;7.50;99.90;;;;;;5036396;28;20031;-75
2023/01/14 03:36:37;;;;;;;24.95;3.47;;;7.50;99.90;;;;;;5036257;28;20473;-75
2023/01/14 03:39:21;;;;;;;27.63;3.50;;;7.60;99.90;;;;;;5035267;28;20073;-75
2023/01/14 03:44:37;;;;;;;29.65;4.43;;;7.70;99.90;;;;;;5036010;28;20036;-75
2023/01/14 03:47:03;;;;;;;32.53;5.07;;;7.70;99.90;;;;;;5035484;28;20025;-75
2023/01/14 03:49:29;;;;;;;26.10;4.70;;;7.60;99.90;;;;;;5036245;28;20026;-75
2023/01/14 03:52:20;;;;;;;32.92;4.65;;;7.60;99.90;;;;;;5034455;28;20029;-75
2023/01/14 03:55:01;;;;;;;33.97;4.55;;;7.60;99.90;;;;;;5035634;28;20028;-75
2023/01/14 03:57:37;;;;;;;32.22;3.97;;;7.60;99.90;;;;;;5035307;28;20467;-75
2023/01/14 04:00:11;;;;;;;26.35;3.65;;;7.60;99.90;;;;;;5035861;28;20032;-75
2023/01/14 04:02:38;;;;;;;31.70;3.75;;;7.50;99.90;;;;;;5035600;28;20022;-75
2023/01/14 04:05:04;;;;;;;32.40;4.05;;;7.60;99.90;;;;;;5034311;28;20029;-75
2023/01/14 04:07:31;;;;;;;41.53;5.05;;;7.50;99.90;;;;;;5034350;28;20030;-75
2023/01/14 04:09:56;;;;;;;35.13;3.58;;;7.60;99.90;;;;;;5034626;28;20095;-75
2023/01/14 04:12:22;;;;;;;31.52;4.15;;;7.50;99.90;;;;;;5035625;28;20029;-75
2023/01/14 04:17:37;;;;;;;38.25;3.83;;;7.50;99.90;;;;;;5035560;28;20033;-75
2023/01/14 04:20:04;;;;;;;31.33;4.00;;;7.50;99.90;;;;;;5034743;28;20032;-75
2023/01/14 04:22:29;;;;;;;35.85;4.93;;;7.60;99.90;;;;;;5035396;28;20051;-76
2023/01/14 04:24:55;;;;;;;29.13;3.88;;;7.60;99.90;;;;;;5035517;28;20053;-75
2023/01/14 04:27:20;;;;;;;33.05;4.50;;;7.60;99.90;;;;;;5035595;28;20025;-75
2023/01/14 04:29:46;;;;;;;32.65;4.35;;;7.70;99.90;;;;;;5034042;28;20041;-75
2023/01/14 04:32:12;;;;;;;28.95;4.75;;;7.70;99.90;;;;;;5033906;28;20543;-76
2023/01/14 04:34:37;;;;;;;39.85;3.55;;;7.70;99.90;;;;;;5034053;28;20099;-76
2023/01/14 04:37:03;;;;;;;41.60;4.90;;;7.70;99.90;;;;;;5017494;28;20140;-75
2023/01/14 04:39:29;;;;;;;30.83;3.97;;;7.70;99.90;;;;;;5034067;28;20084;-75
2023/01/14 04:44:38;;;;;;;35.67;4.35;;;7.80;99.90;;;;;;5035026;28;20041;-75
2023/01/14 04:47:04;;;;;;;36.70;5.00;;;7.70;99.90;;;;;;5017062;28;20390;-76
2023/01/14 04:49:29;;;;;;;31.92;4.20;;;7.70;99.90;;;;;;5033322;28;20069;-75
2023/01/14 04:51:55;;;;;;;40.22;4.63;;;7.70;99.90;;;;;;5017487;28;20065;-76
2023/01/14 04:54:21;;;;;;;43.72;4.47;;;7.70;99.90;;;;;;5016914;28;20065;-76
2023/01/14 04:56:46;;;;;;;36.55;4.18;;;7.70;99.90;;;;;;5033718;28;20524;-76
2023/01/14 04:59:12;;;;;;;34.67;4.95;;;7.60;99.90;;;;;;5034230;28;20033;-76
2023/01/14 05:01:38;;;;;;;39.53;5.32;;;7.60;99.90;;;;;;5034748;28;20088;-76
2023/01/14 05:04:03;;;;;;;38.53;4.95;;;7.60;99.90;;;;;;5034709;28;20446;-76
2023/01/14 05:06:29;;;;;;;44.55;4.10;;;7.50;99.90;;;;;;5016486;28;20044;-75
2023/01/14 05:08:55;;;;;;;38.75;3.97;;;7.50;99.90;;;;;;5033932;28;20030;-76
2023/01/14 05:11:21;;;;;;;24.60;3.92;;;7.50;99.90;;;;;;5016257;28;20132;-76
2023/01/14 05:13:47;;;;;;;32.63;4.55;;;7.50;99.90;;;;;;5033620;28;20138;-75
2023/01/14 05:16:16;;;;;;;32.05;4.13;;;7.50;99.90;;;;;;5016369;28;20043;-76
2023/01/14 05:18:42;;;;;;;32.63;4.13;;;7.50;99.90;;;;;;5034170;28;20462;-75
2023/01/14 05:21:07;;;;;;;30.05;3.78;;;7.50;99.90;;;;;;5032485;28;20128;-75
2023/01/14 05:23:33;;;;;;;28.25;4.10;;;7.60;99.90;;;;;;5034215;28;20037;-76
2023/01/14 05:25:58;;;;;;;40.33;4.70;;;7.60;99.90;;;;;;5033935;28;20030;-75
2023/01/14 05:28:24;;;;;;;29.05;3.75;;;7.60;99.90;;;;;;5032629;28;20029;-76
2023/01/14 05:30:50;;;;;;;30.27;4.57;;;7.60;99.90;;;;;;5032785;28;20393;-75
2023/01/14 05:33:15;;;;;;;34.60;4.15;;;7.50;99.90;;;;;;5033139;28;20057;-76
2023/01/14 05:35:42;;;;;;;38.90;4.15;;;7.50;99.90;;;;;;5033922;28;20090;-76
2023/01/14 05:38:09;;;;;;;41.67;4.25;;;7.50;99.90;;;;;;5016366;28;20037;-74
2023/01/14 05:40:35;;;;;;;24.23;3.55;;;7.50;99.90;;;;;;5033590;28;20481;-76
2023/01/14 05:45:49;;;;;;;36.78;4.57;;;7.50;99.90;;;;;;5033891;28;20057;-76
2023/01/14 05:48:18;;;;;;;19.92;3.50;;;7.50;99.90;;;;;;5033905;28;20022;-76
2023/01/14 05:50:44;;;;;;;28.70;3.35;;;7.40;99.90;;;;;;5033438;28;20099;-76
2023/01/14 05:53:10;;;;;;;29.92;4.05;;;7.50;99.90;;;;;;5033546;28;20080;-75
2023/01/14 05:55:36;;;;;;;29.13;3.58;;;7.50;99.90;;;;;;5033373;28;20034;-76
2023/01/14 05:58:03;;;;;;;25.55;3.38;;;7.50;99.90;;;;;;5032453;28;20465;-75
2023/01/14 06:06:22;;;;;;;33.60;6.22;;;7.40;99.90;;;;;;5033597;28;20045;-75
2023/01/14 06:08:54;;;;;;;24.85;3.05;;;7.40;99.90;;;;;;5033161;28;20037;-75
2023/01/14 06:11:23;;;;;;;30.88;3.75;;;7.40;99.90;;;;;;5033602;28;20496;-74
2023/01/14 06:13:50;;;;;;;34.05;4.45;;;7.40;99.90;;;;;;5031998;28;20167;-76
2023/01/14 06:16:16;;;;;;;31.33;3.60;;;7.40;99.90;;;;;;5033651;28;20065;-75
2023/01/14 06:18:42;;;;;;;32.78;3.42;;;7.40;99.90;;;;;;5032057;28;20030;-75
2023/01/14 06:21:22;;;;;;;32.13;3.70;;;7.40;99.90;;;;;;5033036;28;20398;-75
2023/01/14 06:23:48;;;;;;;24.30;3.08;;;7.40;99.90;;;;;;5032013;28;20022;-75
2023/01/14 06:26:19;;;;;;;28.30;3.22;;;7.40;99.90;;;;;;5031935;28;20044;-75
2023/01/14 06:28:45;;;;;;;26.23;2.95;;;7.40;99.90;;;;;;5033668;28;20033;-75
2023/01/14 06:31:19;;;;;;;21.83;3.08;;;7.50;99.90;;;;;;5033744;28;20034;-75
2023/01/14 06:33:45;;;;;;;24.65;2.78;;;7.50;99.90;;;;;;5033685;28;20076;-75
2023/01/14 06:36:13;;;;;;;24.58;2.70;;;7.50;99.90;;;;;;5019441;28;20475;-75
2023/01/14 06:38:39;;;;;;;21.05;2.88;;;7.60;99.90;;;;;;5037022;28;20050;-75
2023/01/14 06:41:07;;;;;;;26.63;2.53;;;7.50;99.90;;;;;;5036698;28;20025;-75
2023/01/14 06:43:34;;;;;;;24.50;3.03;;;7.60;99.90;;;;;;5035729;28;20025;-76
2023/01/14 06:45:59;;;;;;;25.15;3.60;;;7.60;99.90;;;;;;5037083;28;20033;-75
2023/01/14 06:48:25;;;;;;;22.13;3.75;;;7.60;99.90;;;;;;5035514;28;20133;-75
2023/01/14 06:50:52;;;;;;;22.67;3.22;;;7.60;99.90;;;;;;5035635;28;20426;-75
2023/01/14 06:53:18;;;;;;;24.60;2.95;;;7.60;99.90;;;;;;5036997;28;20505;-75
2023/01/14 06:55:45;;;;;;;27.40;3.33;;;7.60;99.90;;;;;;5036075;28;20044;-75
2023/01/14 06:58:11;;;;;;;26.88;3.33;;;7.60;99.90;;;;;;5035039;28;20120;-75
2023/01/14 07:00:36;;;;;;;24.23;3.35;;;7.60;99.90;;;;;;5035102;28;20061;-75
2023/01/14 07:03:03;;;;;;;21.02;3.00;;;7.60;99.90;;;;;;5035128;28;20029;-75
2023/01/14 07:05:28;;;;;;;23.27;3.53;;;7.60;99.90;;;;;;5036131;28;20032;-76
2023/01/14 07:07:54;;;;;;;27.33;3.00;;;7.60;99.90;;;;;;5035016;28;20073;-75
2023/01/14 07:10:20;;;;;;;25.50;3.03;;;7.60;99.90;;;;;;5036251;28;20033;-75
2023/01/14 07:12:47;;;;;;;29.27;3.50;;;7.60;99.90;;;;;;5036278;28;20143;-75
2023/01/14 07:15:15;;;;;;;23.63;3.08;;;7.50;99.90;;;;;;5036005;28;20037;-76
2023/01/14 07:17:41;;;;;;;24.42;5.13;;;7.50;99.90;;;;;;5036463;28;20442;-75
2023/01/14 07:20:08;;;;;;;25.95;3.05;;;7.50;99.90;;;;;;5036344;28;20061;-76
2023/01/14 07:22:34;;;;;;;21.73;2.90;;;7.50;99.90;;;;;;5036164;28;20036;-76
2023/01/14 07:25:02;;;;;;;22.55;2.80;;;7.50;99.90;;;;;;5035268;28;20025;-76
2023/01/14 07:27:29;;;;;;;24.77;3.60;;;7.50;99.90;;;;;;5018645;28;20033;-77
2023/01/14 07:29:54;;;;;;;24.05;2.58;;;7.50;99.90;;;;;;5019043;28;20129;-77
2023/01/14 07:32:20;;;;;;;23.20;2.92;;;7.50;99.90;;;;;;5018780;28;20120;-77
2023/01/14 07:34:46;;;;;;;24.08;3.28;;;7.50;99.90;;;;;;5035974;28;20026;-77
2023/01/14 07:37:12;;;;;;;26.13;4.22;;;7.50;99.90;;;;;;5034598;28;20542;-77
2023/01/14 07:39:37;;;;;;;21.42;3.60;;;7.50;99.90;;;;;;5017323;28;20064;-77
2023/01/14 07:42:03;;;;;;;31.92;3.45;;;7.50;99.90;;;;;;5034978;28;20041;-77
2023/01/14 07:44:29;;;;;;;23.30;2.75;;;7.50;99.90;;;;;;5034269;28;20021;-77
2023/01/14 07:46:55;;;;;;;27.50;3.30;;;7.50;99.90;;;;;;5034701;28;20033;-77
2023/01/14 07:49:22;;;;;;;28.10;3.28;;;7.50;99.90;;;;;;5034595;28;20029;-77
2023/01/14 07:51:48;;;;;;;28.67;2.70;;;7.40;99.90;;;;;;5033395;28;20033;-76
2023/01/14 07:54:14;;;;;;;18.80;2.70;;;7.50;99.90;;;;;;5034529;28;20029;-77
2023/01/14 07:56:40;;;;;;;21.00;2.40;;;7.40;99.90;;;;;;5033976;28;20067;-76
2023/01/14 07:59:06;;;;;;;19.63;2.78;;;7.40;99.90;;;;;;5033072;28;20021;-77
2023/01/14 08:01:31;;;;;;;19.58;2.50;;;7.40;99.90;;;;;;5033272;28;20052;-78
2023/01/14 08:03:58;;;;;;;21.77;2.50;;;7.40;99.90;;;;;;5033265;28;20112;-77
2023/01/14 08:06:24;;;;;;;22.45;2.72;;;7.40;99.90;;;;;;5034196;28;20494;-78
2023/01/14 08:08:50;;;;;;;22.60;2.95;;;7.40;99.90;;;;;;5034452;28;20086;-78
2023/01/14 08:11:16;;;;;;;12.85;2.15;;;7.40;99.90;;;;;;5033020;28;20025;-78
2023/01/14 08:13:42;;;;;;;25.95;3.30;;;7.50;99.90;;;;;;5034457;28;20029;-77
2023/01/14 08:16:09;;;;;;;25.17;2.92;;;7.50;99.90;;;;;;5034402;28;20038;-77
2023/01/14 08:18:35;;;;;;;23.23;3.13;;;7.50;99.90;;;;;;5033602;28;20394;-78
2023/01/14 08:21:06;;;;;;;21.83;3.00;;;7.50;99.90;;;;;;5033353;28;20496;-77
2023/01/14 08:23:34;;;;;;;24.00;3.10;;;7.50;99.90;;;;;;5034749;28;20365;-79
2023/01/14 08:26:04;;;;;;;16.65;3.00;;;7.50;99.90;;;;;;5033584;28;20554;-77
2023/01/14 08:28:32;;;;;;;16.75;2.33;;;7.50;99.90;;;;;;5033550;28;20021;-76
2023/01/14 08:31:04;;;;;;;11.75;1.88;;;7.50;99.90;;;;;;5032781;28;20065;-76
2023/01/14 08:33:31;;;;;;;13.63;2.47;;;7.50;99.90;;;;;;5032728;28;20068;-75
2023/01/14 08:36:01;;;;;;;19.98;3.20;;;7.50;99.90;;;;;;5034231;28;20045;-75
2023/01/14 08:38:27;;;;;;;11.95;1.95;;;7.50;99.90;;;;;;4993562;28;1118585;-75
2023/01/14 08:40:54;;;;;;;13.82;1.90;;;7.60;99.90;;;;;;5018009;28;20485;-76
2023/01/14 08:43:20;;;;;;;12.00;1.95;;;7.60;99.90;;;;;;5034091;28;20026;-75
2023/01/14 08:45:46;;;;;;;14.00;2.58;;;7.60;99.90;;;;;;5035013;28;20044;-75
2023/01/14 08:48:12;;;;;;;13.02;1.70;;;7.60;99.90;;;;;;5035366;28;20385;-80
2023/01/14 08:50:37;;;;;;;13.45;1.65;;;7.60;99.90;;;;;;5035272;28;20482;-75
2023/01/14 08:53:05;;;;;;;11.88;1.73;;;7.60;99.90;;;;;;5038636;28;20025;-79
2023/01/14 08:55:30;;;;;;;14.55;1.83;;;7.60;99.90;;;;;;5035259;28;20095;-74
2023/01/14 08:57:57;;;;;;;15.38;1.75;;;7.60;99.90;;;;;;5038610;28;20026;-80
2023/01/14 09:00:23;;;;;;;7.93;2.17;;;7.60;99.90;;;;;;5020318;28;20030;-79
2023/01/14 09:02:49;;;;;;;12.88;1.98;;;7.60;99.90;;;;;;5034922;28;20029;-78
2023/01/14 09:05:15;;;;;;;12.70;1.92;;;7.60;99.90;;;;;;5019495;28;20039;-76
2023/01/14 09:18:38;;;;;;;8.88;1.73;;;7.80;99.90;;;;;;5034857;28;20068;-79
2023/01/14 09:21:04;;;;;;;8.00;1.48;;;7.80;99.90;;;;;;5036126;28;20033;-78
2023/01/14 09:23:30;;;;;;;10.07;1.83;;;7.90;99.90;;;;;;5034337;28;20094;-79
2023/01/14 09:25:55;;;;;;;11.82;1.95;;;7.80;99.90;;;;;;5033052;28;20037;-79
2023/01/14 09:28:21;;;;;;;13.35;1.80;;;7.90;99.90;;;;;;5017143;28;20083;-79
2023/01/14 09:30:47;;;;;;;11.88;1.92;;;7.90;99.90;;;;;;5034189;28;20095;-79
2023/01/14 09:33:13;;;;;;;7.72;1.42;;;7.90;99.90;;;;;;5032538;28;20034;-79
2023/01/14 09:35:38;;;;;;;9.27;1.40;;;8.00;99.90;;;;;;5016764;28;20041;-83
2023/01/14 09:38:04;;;;;;;11.50;1.45;;;8.00;99.90;;;;;;5034786;28;20037;-80
2023/01/14 09:40:30;;;;;;;10.88;2.03;;;7.90;99.90;;;;;;5033477;28;20425;-80
2023/01/14 09:42:57;;;;;;;8.88;1.98;;;8.00;99.90;;;;;;5033711;28;20390;-76
2023/01/14 09:45:30;;;;;;;10.27;1.20;;;8.00;99.90;;;;;;5032097;28;20470;-75
2023/01/14 09:48:18;;;;;;;7.18;1.17;;;8.10;99.90;;;;;;5032167;28;20036;-75
2023/01/14 09:51:06;;;;;;;6.10;1.05;;;8.10;99.90;;;;;;5035659;28;20056;-81
2023/01/14 09:53:56;;;;;;;9.40;1.23;;;8.10;99.90;;;;;;5033851;28;20120;-81
2023/01/14 09:56:31;;;;;;;6.20;1.10;;;8.20;99.90;;;;;;5035711;28;20029;-81
2023/01/14 09:59:10;;;;;;;8.20;1.08;;;8.20;99.90;;;;;;5033734;28;20022;-82
2023/01/14 10:01:58;;;;;;;7.28;1.75;;;8.30;99.90;;;;;;5033328;28;20032;-82
2023/01/14 10:04:48;;;;;;;6.78;0.90;;;8.30;99.90;;;;;;5033186;28;20025;-81
2023/01/14 10:07:16;;;;;;;10.23;1.20;;;8.30;99.90;;;;;;5033785;28;20056;-74
2023/01/14 10:09:53;;;;;;;8.02;0.88;;;8.30;99.90;;;;;;5015686;28;20476;-74
2023/01/14 10:12:40;;;;;;;5.80;0.75;;;8.30;99.90;;;;;;5032191;28;20045;-74
2023/01/14 10:15:17;;;;;;;10.52;1.25;;;8.40;99.90;;;;;;5033124;28;20439;-75
2023/01/14 10:17:48;;;;;;;10.05;1.05;;;8.40;99.90;;;;;;5032878;28;20165;-75
2023/01/14 10:20:34;;;;;;;3.70;0.70;;;8.40;99.90;;;;;;5032084;28;20450;-75
2023/01/14 10:23:13;;;;;;;7.28;1.40;;;8.40;99.90;;;;;;5033051;28;20515;-74
2023/01/14 10:25:46;;;;;;;5.50;0.98;;;8.40;99.90;;;;;;5031731;28;20040;-73
2023/01/14 10:28:14;;;;;;;;;;;8.40;99.90;;;;;;5035793;28;20029;-78
2023/01/14 10:30:41;;;;;;;6.78;1.10;;;8.40;99.90;;;;;;5035707;28;19905;-78
2023/01/14 10:33:12;;;;;;;8.18;0.82;;;8.40;99.90;;;;;;5035683;28;20457;-77
2023/01/14 10:35:41;;;;;;;7.22;0.75;;;8.40;99.90;;;;;;5037638;28;20118;-81
2023/01/14 10:38:08;;;;;;;10.15;1.02;;;8.40;99.90;;;;;;5038472;28;20017;-78
2023/01/14 10:40:34;;;;;;;6.25;0.75;;;8.50;99.90;;;;;;5036549;28;20049;-80
2023/01/14 10:43:02;;;;;;;5.35;0.75;;;8.50;99.90;;;;;;5017368;28;20115;-80
2023/01/14 10:45:28;;;;;;;6.15;0.70;;;8.60;99.90;;;;;;5034263;28;20124;-75
2023/01/14 10:48:02;;;;;;;5.18;0.50;;;8.60;99.90;;;;;;5033421;28;20039;-78
2023/01/14 10:50:29;;;;;;;7.05;0.80;;;8.50;99.90;;;;;;5033055;28;20097;-79
2023/01/14 10:53:12;;;;;;;8.73;0.60;;;8.60;99.90;;;;;;5032744;28;20033;-78
2023/01/14 10:55:50;;;;;;;4.68;0.60;;;8.60;99.90;;;;;;5033039;28;20033;-76
2023/01/14 10:58:28;;;;;;;6.22;0.80;;;8.60;99.90;;;;;;5032021;28;20458;-79
2023/01/14 11:01:06;;;;;;;6.35;0.70;;;8.60;99.90;;;;;;5035489;28;20028;-79
2023/01/14 11:03:35;;;;;;;5.40;0.45;;;8.60;99.90;;;;;;5032156;28;20021;-80
2023/01/14 11:06:05;;;;;;;8.18;0.75;;;8.70;99.90;;;;;;5031613;28;20414;-80
2023/01/14 11:08:47;;;;;;;8.07;0.90;;;8.70;99.90;;;;;;5032765;28;20487;-81
2023/01/14 11:11:22;;;;;;;5.72;0.90;;;8.70;99.90;;;;;;5032592;28;20040;-81
2023/01/14 11:13:50;;;;;;;8.20;0.90;;;8.80;99.90;;;;;;5032437;28;20068;-80
2023/01/14 11:16:24;;;;;;;6.65;1.35;;;8.80;99.90;;;;;;5033435;28;20065;-75
2023/01/14 11:18:59;;;;;;;9.50;1.13;;;8.80;99.90;;;;;;5031668;28;20076;-74
2023/01/14 11:21:36;;;;;;;7.32;0.70;;;8.80;99.90;;;;;;5036392;28;20026;-74
2023/01/14 11:24:19;;;;;;;5.70;0.77;;;8.80;99.90;;;;;;5035303;28;20026;-74
2023/01/14 11:26:45;;;;;;;3.38;0.40;;;8.80;99.90;;;;;;5036492;28;20148;-73
2023/01/14 11:29:24;;;;;;;4.13;0.43;;;8.90;99.90;;;;;;5034710;28;20481;-73
2023/01/14 11:31:54;;;;;;;9.90;0.90;;;8.90;99.90;;;;;;5036165;28;20037;-73
2023/01/14 11:34:46;;;;;;;9.88;0.60;;;8.90;99.90;;;;;;5034393;28;20032;-73
2023/01/14 11:37:17;;;;;;;4.90;0.55;;;8.90;99.90;;;;;;5034556;28;20033;-73
2023/01/14 11:39:56;;;;;;;7.20;0.73;;;9.00;99.90;;;;;;5035937;28;20061;-73
2023/01/14 11:42:35;;;;;;;5.65;0.70;;;9.00;99.90;;;;;;5034798;28;20492;-74
2023/01/14 11:45:12;;;;;;;6.93;0.60;;;9.00;99.90;;;;;;5035480;28;20136;-74
2023/01/14 11:47:53;;;;;;;3.03;0.52;;;9.00;99.90;;;;;;5036102;28;20108;-76
2023/01/14 11:50:27;;;;;;;5.07;0.60;;;9.00;99.90;;;;;;5036133;28;20029;-75
2023/01/14 11:53:18;;;;;;;5.10;0.70;;;9.10;99.90;;;;;;5018826;28;20120;-76
2023/01/14 11:55:49;;;;;;;5.05;0.93;;;9.10;99.90;;;;;;5035552;28;20478;-75
2023/01/14 11:58:27;;;;;;;3.38;0.60;;;9.10;99.90;;;;;;5035228;28;20362;-75
2023/01/14 12:01:09;;;;;;;3.22;0.32;;;9.10;99.90;;;;;;5035657;28;20026;-76
2023/01/14 12:03:46;;;;;;;2.92;0.30;;;9.20;99.90;;;;;;5034539;28;20025;-76
2023/01/14 12:06:18;;;;;;;3.95;0.43;;;9.20;99.90;;;;;;5035763;28;20077;-76
2023/01/14 12:08:49;;;;;;;4.80;0.47;;;9.20;99.90;;;;;;5035958;28;20026;-76
2023/01/14 12:11:24;;;;;;;1.33;0.63;;;9.20;99.90;;;;;;5035399;28;20406;-76
2023/01/14 12:17:01;;;;;;;2.47;0.40;;;9.30;99.90;;;;;;5034512;28;20095;-76
2023/01/14 12:19:35;;;;;;;2.97;0.30;;;9.30;99.90;;;;;;5035696;28;20022;-76
2023/01/14 12:22:18;;;;;;;2.47;0.25;;;9.30;99.90;;;;;;5035151;28;20060;-76
2023/01/14 12:24:56;;;;;;;2.63;0.20;;;9.40;99.90;;;;;;5034196;28;20064;-76
2023/01/14 12:27:43;;;;;;;2.38;0.20;;;9.30;99.90;;;;;;5033529;28;20335;-76
2023/01/14 12:30:46;;;;;;;2.08;0.30;;;9.40;99.90;;;;;;5034991;28;20017;-76
2023/01/14 12:33:35;;;;;;;1.20;0.20;;;9.40;99.90;;;;;;5035006;28;20030;-76
2023/01/14 12:36:34;;;;;;;2.30;0.22;;;9.40;99.90;;;;;;5033605;28;20030;-76
2023/01/14 12:45:42;;;;;;;0.95;0.20;;;9.50;99.90;;;;;;5034480;28;20099;-76
2023/01/14 12:48:09;;;;;;;3.72;0.40;;;9.40;99.90;;;;;;5033299;28;20029;-76
2023/01/14 12:50:42;;;;;;;3.25;0.47;;;9.50;99.90;;;;;;5034568;28;20540;-76
2023/01/14 12:53:18;;;;;;;2.15;0.30;;;9.50;99.90;;;;;;5034421;28;20094;-76
2023/01/14 12:55:46;;;;;;;1.23;0.30;;;9.50;99.90;;;;;;5033662;28;20087;-75
2023/01/14 12:58:20;;;;;;;2.55;0.30;;;9.50;99.90;;;;;;5033244;28;20038;-76
2023/01/14 13:00:53;;;;;;;2.60;0.20;;;9.60;99.90;;;;;;5034259;28;20565;-76
2023/01/14 13:03:24;;;;;;;1.60;0.40;;;9.60;99.90;;;;;;5034558;28;20053;-76
2023/01/14 13:05:53;;;;;;;4.90;0.30;;;9.60;99.90;;;;;;5034189;28;20029;-76
2023/01/14 13:08:50;;;;;;;1.35;0.40;;;9.60;99.90;;;;;;5034411;28;20021;-76
2023/01/14 13:11:25;;;;;;;2.63;0.20;;;9.60;99.90;;;;;;5033161;28;20033;-76
2023/01/14 13:13:59;;;;;;;2.33;0.10;;;9.60;99.90;;;;;;5032999;28;20470;-76
2023/01/14 13:16:27;;;;;;;2.05;0.20;;;9.60;99.90;;;;;;5034191;28;20045;-76
2023/01/14 13:18:58;;;;;;;2.25;0.30;;;9.60;99.90;;;;;;5033341;28;20442;-76
2023/01/14 13:22:02;;;;;;;2.30;0.20;;;9.60;99.90;;;;;;5032834;28;20136;-76
2023/01/14 13:24:37;;;;;;;1.63;0.20;;;9.70;99.90;;;;;;5032993;28;20095;-76
2023/01/14 13:27:32;;;;;;;1.92;0.55;;;9.60;99.90;;;;;;5032645;28;20033;-76
2023/01/14 13:30:16;;;;;;;1.65;0.30;;;9.70;99.90;;;;;;5033813;28;20458;-77
2023/01/14 13:33:00;;;;;;;1.75;0.28;;;9.60;99.90;;;;;;5034315;28;20029;-76
2023/01/14 13:35:36;;;;;;;1.85;0.20;;;9.60;99.90;;;;;;5033305;28;20470;-76
2023/01/14 13:38:14;;;;;;;1.90;0.30;;;9.70;99.90;;;;;;5034115;28;20106;-77
2023/01/14 13:40:50;;;;;;;3.35;0.40;;;9.70;99.90;;;;;;5033973;28;20058;-76
2023/01/14 13:43:22;;;;;;;1.48;0.32;;;9.70;99.90;;;;;;5033363;28;20033;-76
2023/01/14 13:45:55;;;;;;;1.77;0.30;;;9.70;99.90;;;;;;5034306;28;20128;-76
2023/01/14 13:48:25;;;;;;;2.05;0.30;;;9.70;99.90;;;;;;5033580;28;20410;-76
2023/01/14 13:50:52;;;;;;;2.05;0.30;;;9.70;99.90;;;;;;5034115;28;20056;-76
2023/01/14 13:53:17;;;;;;;1.33;0.17;;;9.70;99.90;;;;;;5033949;28;20120;-76